Terminal Aerodrome Forecast
Issued by NWS

Home | Current Version | Previous Version | Text Only | Print | Product List | Glossary On
Versions: 1 2 3 4 5 6 7 8 9 10 11 12 13 14 15 16 17 18 19
000
FTUS43 KTOP 281730
TAFMHK
TAF
KMHK 281730Z 2818/2918 26011KT P6SM SCT035
     FM290000 22002KT P6SM FEW250
     FM291500 22011KT P6SM FEW030 SCT250=

USA.gov is the U.S. government's official web portal to all federal, state and local government web resources and services.